Time;durP1;ratioP1;P1;durP2;ratioP2;P2;SDS_P1;SDS_P2;PMS_P1;PMS_P2;Temp;Humidity;BMP_temperature;BMP_pressure;BME280_temperature;BME280_humidity;BME280_pressure;Samples;Min_cycle;Max_cycle;Signal;HPM_P1;HPM_P2
2023/06/11 00:00:59;;;;;;;4.30;1.80;;;22.00;76.90;;;;;;5031738;28;20057;-71
2023/06/11 00:03:24;;;;;;;3.72;2.17;;;22.10;77.00;;;;;;5028118;28;20041;-72
2023/06/11 00:05:51;;;;;;;5.28;1.65;;;22.10;76.80;;;;;;5042417;28;20043;-72
2023/06/11 00:08:17;;;;;;;3.13;1.65;;;22.10;77.00;;;;;;5010786;28;20026;-71
2023/06/11 00:10:43;;;;;;;3.38;1.77;;;22.10;77.00;;;;;;5011180;28;20504;-72
2023/06/11 00:13:09;;;;;;;5.95;1.92;;;22.10;77.30;;;;;;5029024;28;20108;-72
2023/06/11 00:15:34;;;;;;;6.50;2.60;;;22.20;77.40;;;;;;5008892;28;20373;-71
2023/06/11 00:18:01;;;;;;;4.88;2.00;;;22.10;77.30;;;;;;5010122;28;20037;-71
2023/06/11 00:20:27;;;;;;;3.13;1.80;;;22.10;77.60;;;;;;5008399;28;20661;-74
2023/06/11 00:22:53;;;;;;;4.43;1.95;;;22.20;77.80;;;;;;5027484;28;20048;-72
2023/06/11 00:25:18;;;;;;;5.47;2.15;;;22.10;78.00;;;;;;5026577;28;20033;-73
2023/06/11 00:27:44;;;;;;;5.43;2.50;;;22.20;78.00;;;;;;5010086;28;20025;-73
2023/06/11 00:30:11;;;;;;;6.28;2.17;;;22.10;78.20;;;;;;5027407;28;20485;-73
2023/06/11 00:32:37;;;;;;;4.18;2.03;;;22.10;78.50;;;;;;5026602;28;20448;-71
2023/06/11 00:35:07;;;;;;;3.70;2.22;;;22.10;78.80;;;;;;5009488;28;20042;-71
2023/06/11 00:37:34;;;;;;;3.90;2.13;;;22.20;78.70;;;;;;5008661;28;20041;-71
2023/06/11 00:40:00;;;;;;;6.03;2.10;;;22.10;78.80;;;;;;5009420;28;20036;-74
2023/06/11 00:42:27;;;;;;;4.95;1.98;;;22.10;79.00;;;;;;5010913;28;20037;-72
2023/06/11 00:44:54;;;;;;;3.10;1.58;;;22.00;79.60;;;;;;5013521;28;20065;-71
2023/06/11 00:47:20;;;;;;;6.32;2.13;;;22.00;79.60;;;;;;5012228;28;20033;-70
2023/06/11 00:49:45;;;;;;;4.47;1.90;;;22.00;79.90;;;;;;5031157;28;20030;-74
2023/06/11 00:52:15;;;;;;;5.45;2.03;;;22.00;80.00;;;;;;5034788;28;20096;-72
2023/06/11 00:54:41;;;;;;;4.30;2.17;;;22.00;80.40;;;;;;5018973;28;20379;-72
2023/06/11 00:57:07;;;;;;;4.65;2.10;;;21.90;80.80;;;;;;5035642;28;20099;-73
2023/06/11 00:59:38;;;;;;;5.63;2.17;;;21.90;80.80;;;;;;5013229;28;20056;-73
2023/06/11 01:02:17;;;;;;;8.27;2.58;;;21.80;81.10;;;;;;5031324;28;20038;-71
2023/06/11 01:04:45;;;;;;;6.10;2.17;;;21.80;81.20;;;;;;5018194;28;20047;-71
2023/06/11 01:07:15;;;;;;;4.78;2.25;;;21.80;81.70;;;;;;5012945;28;20053;-71
2023/06/11 01:09:43;;;;;;;4.28;2.30;;;21.70;82.00;;;;;;5012282;28;20047;-71
2023/06/11 01:12:09;;;;;;;3.80;2.10;;;21.60;82.20;;;;;;5030896;28;20505;-71
2023/06/11 01:14:35;;;;;;;3.65;1.85;;;21.60;82.20;;;;;;5012121;28;20452;-73
2023/06/11 01:17:07;;;;;;;7.30;2.22;;;21.60;82.50;;;;;;5030470;28;20029;-72
2023/06/11 01:19:58;;;;;;;5.00;2.08;;;21.60;82.60;;;;;;5011828;28;20049;-71
2023/06/11 01:22:49;;;;;;;5.88;2.25;;;21.60;82.90;;;;;;5011571;28;20460;-71
2023/06/11 01:25:30;;;;;;;4.32;2.03;;;21.50;83.30;;;;;;5029754;28;20607;-71
2023/06/11 01:28:01;;;;;;;3.55;2.17;;;21.40;83.40;;;;;;5018588;28;20494;-72
2023/06/11 01:30:28;;;;;;;4.57;2.30;;;21.50;83.60;;;;;;5021667;28;20029;-71
2023/06/11 01:32:56;;;;;;;3.95;2.22;;;21.50;83.60;;;;;;5012730;28;20022;-73
2023/06/11 01:35:22;;;;;;;5.65;2.67;;;21.40;83.90;;;;;;5011504;28;20401;-72
2023/06/11 01:37:55;;;;;;;6.45;2.13;;;21.40;83.80;;;;;;5012652;28;20045;-72
2023/06/11 01:40:22;;;;;;;4.43;2.53;;;21.40;84.20;;;;;;5011423;28;20402;-71
2023/06/11 01:42:48;;;;;;;8.73;2.67;;;21.40;84.40;;;;;;5031224;28;20553;-70
2023/06/11 01:45:16;;;;;;;5.15;2.33;;;21.40;84.30;;;;;;5013163;28;20125;-71
2023/06/11 01:47:44;;;;;;;5.05;2.15;;;21.40;84.80;;;;;;5028798;28;20044;-72
2023/06/11 01:50:11;;;;;;;4.55;2.28;;;21.30;84.90;;;;;;5042857;28;20037;-71
2023/06/11 01:52:38;;;;;;;6.43;2.20;;;21.30;85.20;;;;;;5029558;28;20398;-73
2023/06/11 01:55:07;;;;;;;3.95;2.47;;;21.30;85.40;;;;;;5012445;28;20381;-72
2023/06/11 01:57:34;;;;;;;4.43;2.33;;;21.40;85.50;;;;;;5011205;28;20041;-74
2023/06/11 02:00:00;;;;;;;4.80;2.40;;;21.40;85.60;;;;;;5029788;28;20037;-73
2023/06/11 02:02:31;;;;;;;9.68;2.67;;;21.40;85.80;;;;;;5010911;28;20026;-73
2023/06/11 02:04:57;;;;;;;5.63;2.13;;;21.40;86.20;;;;;;5042928;28;20033;-74
2023/06/11 02:07:22;;;;;;;7.03;2.70;;;21.40;86.20;;;;;;5036792;28;20810;-72
2023/06/11 02:09:48;;;;;;;8.02;2.97;;;21.40;86.40;;;;;;5029594;28;20030;-72
2023/06/11 02:12:14;;;;;;;4.78;2.55;;;21.40;86.60;;;;;;5028305;28;20078;-74
2023/06/11 02:14:39;;;;;;;9.38;2.30;;;21.40;87.40;;;;;;5011573;28;20117;-73
2023/06/11 02:17:05;;;;;;;7.85;2.58;;;21.40;86.80;;;;;;5029393;28;20038;-73
2023/06/11 02:19:30;;;;;;;9.10;2.60;;;21.50;87.00;;;;;;5028260;28;20044;-73
2023/06/11 02:21:56;;;;;;;11.23;3.20;;;21.50;86.90;;;;;;5011678;28;20030;-73
2023/06/11 02:24:22;;;;;;;3.80;2.13;;;21.40;87.20;;;;;;5028417;28;20029;-73
2023/06/11 02:26:47;;;;;;;6.72;2.55;;;21.40;87.40;;;;;;5011723;28;20037;-73
2023/06/11 02:29:13;;;;;;;5.30;2.65;;;21.30;87.60;;;;;;5010275;28;20107;-73
2023/06/11 02:31:38;;;;;;;8.10;2.83;;;21.30;87.60;;;;;;5029316;28;20083;-72
2023/06/11 02:34:04;;;;;;;7.20;2.35;;;21.30;87.90;;;;;;5029083;28;20044;-72
2023/06/11 02:36:29;;;;;;;5.10;2.50;;;21.30;88.00;;;;;;5028099;28;20041;-72
2023/06/11 02:38:55;;;;;;;6.13;2.80;;;21.20;88.30;;;;;;5028650;28;20520;-73
2023/06/11 02:41:21;;;;;;;5.43;2.58;;;21.20;88.70;;;;;;5010424;28;20176;-72
2023/06/11 02:43:46;;;;;;;7.70;3.17;;;21.10;88.90;;;;;;5029180;28;20101;-72
2023/06/11 02:46:12;;;;;;;5.13;2.67;;;21.10;89.00;;;;;;5011371;28;20083;-73
2023/06/11 02:48:37;;;;;;;8.18;2.67;;;21.10;89.50;;;;;;5027855;28;20029;-72
2023/06/11 02:51:03;;;;;;;8.48;2.85;;;21.10;89.60;;;;;;5011253;28;20021;-73
2023/06/11 02:53:28;;;;;;;8.93;3.17;;;21.00;89.70;;;;;;5010064;28;20068;-72
2023/06/11 02:55:54;;;;;;;7.75;3.33;;;21.10;89.80;;;;;;5029491;28;20037;-72
2023/06/11 02:58:20;;;;;;;8.50;3.13;;;21.10;89.90;;;;;;5035551;28;20056;-73
2023/06/11 03:00:45;;;;;;;6.20;3.00;;;21.10;90.00;;;;;;5028943;28;20037;-71
2023/06/11 03:03:11;;;;;;;8.27;3.17;;;21.00;90.00;;;;;;5028921;28;20478;-73
2023/06/11 03:05:37;;;;;;;6.85;2.70;;;20.90;90.20;;;;;;5028419;28;20116;-71
2023/06/11 03:08:02;;;;;;;7.47;3.55;;;20.90;90.30;;;;;;5017362;28;20033;-72
2023/06/11 03:10:28;;;;;;;6.28;3.08;;;20.90;90.30;;;;;;5010177;28;20041;-71
2023/06/11 03:12:56;;;;;;;8.95;2.97;;;20.80;90.50;;;;;;5028702;28;20572;-71
2023/06/11 03:15:22;;;;;;;3.50;2.50;;;20.80;90.50;;;;;;5009798;28;20041;-73
2023/06/11 03:17:47;;;;;;;6.82;3.00;;;20.80;90.70;;;;;;4991023;28;20046;-73
2023/06/11 03:20:13;;;;;;;7.18;3.30;;;20.80;90.80;;;;;;5018372;28;20402;-75
2023/06/11 03:22:39;;;;;;;7.10;2.75;;;20.80;90.90;;;;;;5028590;28;20178;-72
2023/06/11 03:25:05;;;;;;;5.82;3.17;;;20.70;90.90;;;;;;5028466;28;20030;-73
2023/06/11 03:27:30;;;;;;;8.57;3.65;;;20.70;91.00;;;;;;5009307;28;20103;-70
2023/06/11 03:29:56;;;;;;;6.72;2.80;;;20.80;91.00;;;;;;5028103;28;20537;-71
2023/06/11 03:32:22;;;;;;;4.57;2.55;;;20.70;91.10;;;;;;5009701;28;20037;-72
2023/06/11 03:34:50;;;;;;;7.25;2.55;;;20.70;91.20;;;;;;5028112;28;20029;-73
2023/06/11 03:37:16;;;;;;;3.72;2.60;;;20.70;91.20;;;;;;5009485;28;20034;-73
2023/06/11 03:39:43;;;;;;;4.90;2.80;;;20.70;91.20;;;;;;5027664;28;20033;-74
2023/06/11 03:42:08;;;;;;;6.63;2.78;;;20.70;91.30;;;;;;5010483;28;20031;-72
2023/06/11 03:44:34;;;;;;;6.30;2.90;;;20.60;91.40;;;;;;5027200;28;20453;-71
2023/06/11 03:46:59;;;;;;;9.80;3.08;;;20.60;91.50;;;;;;5028271;28;20030;-73
2023/06/11 03:49:25;;;;;;;7.95;2.85;;;20.70;91.50;;;;;;5026628;28;20044;-73
2023/06/11 03:51:50;;;;;;;5.22;2.95;;;20.60;91.60;;;;;;5010028;28;20046;-70
2023/06/11 03:54:16;;;;;;;7.07;2.80;;;20.70;91.60;;;;;;5027053;28;20041;-71
2023/06/11 03:56:42;;;;;;;13.63;4.22;;;20.70;91.50;;;;;;5010089;28;20401;-72
2023/06/11 03:59:07;;;;;;;8.15;3.17;;;20.60;91.60;;;;;;5027299;28;20120;-72
2023/06/11 04:01:33;;;;;;;4.65;2.95;;;20.60;91.70;;;;;;5026867;28;20042;-71
2023/06/11 04:03:58;;;;;;;5.85;3.25;;;20.60;91.70;;;;;;5032875;28;20040;-71
2023/06/11 04:06:24;;;;;;;7.65;3.08;;;20.60;91.80;;;;;;5015980;28;20394;-72
2023/06/11 04:08:50;;;;;;;5.18;2.92;;;20.60;91.80;;;;;;5009630;28;20802;-74
2023/06/11 04:11:15;;;;;;;6.25;2.70;;;20.60;91.90;;;;;;5009319;28;20033;-72
2023/06/11 04:13:41;;;;;;;6.70;3.28;;;20.60;91.90;;;;;;5010075;28;20029;-73
2023/06/11 04:16:06;;;;;;;5.78;3.08;;;20.60;92.00;;;;;;5009842;28;20032;-72
2023/06/11 04:18:32;;;;;;;5.55;3.10;;;20.60;92.00;;;;;;5013143;28;20421;-73
2023/06/11 04:20:58;;;;;;;7.28;3.17;;;20.60;92.00;;;;;;5031298;28;20026;-72
2023/06/11 04:23:23;;;;;;;6.13;2.78;;;20.50;92.20;;;;;;5030867;28;20034;-71
2023/06/11 04:25:49;;;;;;;10.02;2.70;;;20.60;92.10;;;;;;5031697;28;20132;-72
2023/06/11 04:28:16;;;;;;;5.95;2.80;;;20.60;92.20;;;;;;5030690;28;20485;-75
2023/06/11 04:30:41;;;;;;;9.25;3.30;;;20.60;92.20;;;;;;5031384;28;20037;-73
2023/06/11 04:33:08;;;;;;;7.00;3.13;;;20.60;92.30;;;;;;5031809;28;20076;-72
2023/06/11 04:35:35;;;;;;;7.07;2.72;;;20.50;92.40;;;;;;5012650;28;20129;-71
2023/06/11 04:38:03;;;;;;;8.32;3.08;;;20.60;92.30;;;;;;5032540;28;20095;-72
2023/06/11 04:40:28;;;;;;;10.07;2.83;;;20.60;92.40;;;;;;5012329;28;20489;-72
2023/06/11 04:42:54;;;;;;;5.75;3.20;;;20.60;92.30;;;;;;5032272;28;20038;-71
2023/06/11 04:45:20;;;;;;;7.22;3.30;;;20.70;92.30;;;;;;5030809;28;20033;-73
2023/06/11 04:47:46;;;;;;;4.57;3.22;;;20.70;92.20;;;;;;5031394;28;20484;-71
2023/06/11 04:50:12;;;;;;;9.50;3.38;;;20.70;92.40;;;;;;5013097;28;20030;-71
2023/06/11 04:52:38;;;;;;;4.38;2.78;;;20.80;92.20;;;;;;5030589;28;20029;-72
2023/06/11 04:55:06;;;;;;;8.80;2.88;;;20.80;92.20;;;;;;5031606;28;20106;-71
2023/06/11 04:57:34;;;;;;;4.88;2.63;;;20.80;92.30;;;;;;5030288;28;20057;-71
2023/06/11 05:00:01;;;;;;;5.57;2.85;;;20.80;92.20;;;;;;5030775;28;20497;-71
2023/06/11 05:02:26;;;;;;;6.10;2.92;;;20.80;92.20;;;;;;5030126;28;20044;-71
2023/06/11 05:04:53;;;;;;;4.72;2.95;;;20.80;92.40;;;;;;5043358;28;20370;-71
2023/06/11 05:07:20;;;;;;;5.82;3.28;;;20.80;92.50;;;;;;5019828;28;20104;-73
2023/06/11 05:09:45;;;;;;;7.05;3.33;;;20.80;92.50;;;;;;5012646;28;20052;-71
2023/06/11 05:12:11;;;;;;;5.95;3.50;;;20.90;92.40;;;;;;5031148;28;20497;-72
2023/06/11 05:14:37;;;;;;;5.03;3.00;;;20.90;92.40;;;;;;5029857;28;20116;-72
2023/06/11 05:17:03;;;;;;;5.13;3.00;;;21.00;92.40;;;;;;5030625;28;20561;-72
2023/06/11 05:19:29;;;;;;;6.35;3.58;;;21.00;92.40;;;;;;5011247;28;20037;-71
2023/06/11 05:21:55;;;;;;;7.55;3.05;;;21.00;92.40;;;;;;5031066;28;20017;-71
2023/06/11 05:24:21;;;;;;;5.57;3.00;;;21.10;92.30;;;;;;5029769;28;20505;-70
2023/06/11 05:26:46;;;;;;;4.72;2.53;;;21.10;92.20;;;;;;5030475;28;20112;-73
2023/06/11 05:29:12;;;;;;;5.93;3.05;;;21.20;92.30;;;;;;5030389;28;20044;-73
2023/06/11 05:31:38;;;;;;;4.53;2.78;;;21.30;92.10;;;;;;5029754;28;20437;-71
2023/06/11 05:34:04;;;;;;;4.88;3.17;;;21.30;92.10;;;;;;5012591;28;20547;-71
2023/06/11 05:36:31;;;;;;;4.70;2.90;;;21.40;92.00;;;;;;5029624;28;20478;-73
2023/06/11 05:38:56;;;;;;;5.97;2.90;;;21.60;92.00;;;;;;5012072;28;20080;-72
2023/06/11 05:41:22;;;;;;;7.35;2.90;;;21.70;91.90;;;;;;5011511;28;20405;-72
2023/06/11 05:43:48;;;;;;;5.88;3.15;;;22.00;91.40;;;;;;5030261;28;20029;-73
2023/06/11 05:46:14;;;;;;;8.15;2.63;;;22.30;91.20;;;;;;5030193;28;20670;-71
2023/06/11 05:48:41;;;;;;;9.43;3.03;;;22.60;90.90;;;;;;5025373;28;20033;-73
2023/06/11 05:51:06;;;;;;;12.57;3.08;;;22.90;90.70;;;;;;5012285;28;20121;-72
2023/06/11 05:53:32;;;;;;;10.45;2.85;;;23.40;89.90;;;;;;5028850;28;20116;-72
2023/06/11 05:56:03;;;;;;;5.13;2.97;;;23.90;88.60;;;;;;5012298;28;20033;-72
2023/06/11 05:58:31;;;;;;;5.88;2.90;;;24.30;87.50;;;;;;5011084;28;20489;-72
2023/06/11 06:00:57;;;;;;;5.22;2.50;;;24.60;86.90;;;;;;5011778;28;20040;-72
2023/06/11 06:03:23;;;;;;;3.95;2.78;;;24.90;87.40;;;;;;5028737;28;20037;-72
2023/06/11 06:05:48;;;;;;;7.45;2.95;;;24.90;87.10;;;;;;5018734;28;20034;-72
2023/06/11 06:08:14;;;;;;;5.28;2.97;;;25.10;85.50;;;;;;5029810;28;20041;-72
2023/06/11 06:10:39;;;;;;;8.50;2.90;;;25.20;85.20;;;;;;5029046;28;20110;-72
2023/06/11 06:13:05;;;;;;;4.85;3.05;;;25.20;84.80;;;;;;5012550;28;20033;-73
2023/06/11 06:15:31;;;;;;;3.25;2.40;;;25.20;85.00;;;;;;5028367;28;20100;-73
2023/06/11 06:17:56;;;;;;;5.03;2.45;;;25.30;85.40;;;;;;5028540;28;20042;-73
2023/06/11 06:20:22;;;;;;;10.15;2.38;;;25.30;84.80;;;;;;5027384;28;20033;-74
2023/06/11 06:22:47;;;;;;;5.57;2.63;;;25.20;85.10;;;;;;5028629;28;20032;-72
2023/06/11 06:25:15;;;;;;;4.97;2.45;;;25.20;85.20;;;;;;5029802;28;20033;-73
2023/06/11 06:27:41;;;;;;;4.80;2.40;;;25.20;84.70;;;;;;5028587;28;20029;-71
2023/06/11 06:30:07;;;;;;;3.33;2.47;;;25.30;84.40;;;;;;5029097;28;20037;-71
2023/06/11 06:32:33;;;;;;;4.85;2.67;;;25.40;85.90;;;;;;5022483;28;20489;-72
2023/06/11 06:34:58;;;;;;;5.63;2.70;;;25.50;85.90;;;;;;5006437;28;20045;-73
2023/06/11 06:37:27;;;;;;;4.78;2.42;;;25.70;85.90;;;;;;5007584;28;20032;-73
2023/06/11 06:39:53;;;;;;;3.70;2.30;;;25.90;85.10;;;;;;5026384;28;20037;-73
2023/06/11 06:42:19;;;;;;;6.53;2.50;;;26.10;84.60;;;;;;5007871;28;20033;-73
2023/06/11 06:44:44;;;;;;;4.70;2.30;;;26.20;84.40;;;;;;5026984;28;20048;-73
2023/06/11 06:47:10;;;;;;;5.13;2.30;;;26.50;83.90;;;;;;5008674;28;20034;-73
2023/06/11 06:49:36;;;;;;;7.28;2.90;;;26.70;85.10;;;;;;5023064;28;20112;-73
2023/06/11 06:52:02;;;;;;;3.72;2.28;;;27.00;83.70;;;;;;5026320;28;20121;-74
2023/06/11 06:54:27;;;;;;;3.45;2.40;;;27.30;82.40;;;;;;5007722;28;20120;-74
2023/06/11 06:56:53;;;;;;;8.68;2.83;;;27.80;82.30;;;;;;5026715;28;20258;-74
2023/06/11 06:59:18;;;;;;;4.15;2.50;;;28.20;80.80;;;;;;5025270;28;20099;-73
2023/06/11 07:01:44;;;;;;;14.70;3.42;;;29.10;79.80;;;;;;5026735;28;20037;-74
2023/06/11 07:04:10;;;;;;;6.07;3.30;;;30.00;78.80;;;;;;5008375;28;20504;-73
2023/06/11 07:06:36;;;;;;;4.40;3.53;;;31.10;78.90;;;;;;5007530;28;20029;-72
2023/06/11 07:09:03;;;;;;;7.95;3.35;;;32.20;74.60;;;;;;5025819;28;20116;-72
2023/06/11 07:11:28;;;;;;;5.43;3.38;;;32.70;74.30;;;;;;5007008;28;20033;-74
2023/06/11 07:13:55;;;;;;;8.60;3.67;;;33.40;71.60;;;;;;5026486;28;20504;-74
2023/06/11 07:16:21;;;;;;;7.53;3.70;;;33.80;70.00;;;;;;5007059;28;20029;-74
2023/06/11 07:18:46;;;;;;;5.60;4.05;;;34.20;69.60;;;;;;5026056;28;20046;-74
2023/06/11 07:21:12;;;;;;;8.52;3.80;;;34.40;71.80;;;;;;5007932;28;20035;-74
2023/06/11 07:23:38;;;;;;;4.72;3.78;;;34.80;68.70;;;;;;5007712;28;20179;-73
2023/06/11 07:26:05;;;;;;;8.02;4.45;;;34.90;68.50;;;;;;5025868;28;20116;-74
2023/06/11 07:28:30;;;;;;;4.82;3.88;;;35.40;70.00;;;;;;5024725;28;20030;-74
2023/06/11 07:30:56;;;;;;;7.20;4.47;;;36.00;67.20;;;;;;5025743;28;20044;-74
2023/06/11 07:33:22;;;;;;;5.10;3.80;;;36.00;68.00;;;;;;5007651;28;20525;-73
2023/06/11 07:35:49;;;;;;;5.47;4.40;;;36.60;65.80;;;;;;5028158;28;20123;-73
2023/06/11 07:38:16;;;;;;;6.13;3.67;;;36.70;67.90;;;;;;5025319;28;20451;-75
2023/06/11 07:40:42;;;;;;;9.45;4.45;;;36.80;66.70;;;;;;5026821;28;20112;-74
2023/06/11 07:43:07;;;;;;;4.50;4.10;;;36.80;67.80;;;;;;5027860;28;20223;-73
2023/06/11 07:45:33;;;;;;;5.57;4.80;;;37.40;64.40;;;;;;5008823;28;20049;-73
2023/06/11 07:47:59;;;;;;;5.05;4.50;;;37.70;64.90;;;;;;5027746;28;20869;-74
2023/06/11 07:50:24;;;;;;;5.15;4.65;;;37.60;65.40;;;;;;5024916;28;20046;-74
2023/06/11 07:52:50;;;;;;;5.43;4.93;;;37.50;64.80;;;;;;5009135;28;20035;-73
2023/06/11 07:55:16;;;;;;;5.65;4.95;;;37.70;64.30;;;;;;5027124;28;20374;-73
2023/06/11 07:57:42;;;;;;;8.13;4.82;;;37.60;63.90;;;;;;5011412;28;20087;-73
2023/06/11 08:00:12;;;;;;;8.52;5.15;;;37.60;63.50;;;;;;5009011;28;20041;-74
2023/06/11 08:02:40;;;;;;;7.88;5.03;;;37.30;63.90;;;;;;5008634;28;20037;-73
2023/06/11 08:05:06;;;;;;;8.43;4.80;;;37.00;65.80;;;;;;5029651;28;20401;-73
2023/06/11 08:07:31;;;;;;;8.60;4.63;;;37.20;63.80;;;;;;5022390;28;20040;-74
2023/06/11 08:09:57;;;;;;;8.70;4.88;;;37.10;64.00;;;;;;5027355;28;20072;-72
2023/06/11 08:12:23;;;;;;;6.30;5.03;;;36.80;64.30;;;;;;5025959;28;20033;-73
2023/06/11 08:14:48;;;;;;;4.95;3.80;;;36.30;64.10;;;;;;5009927;28;20117;-72
2023/06/11 08:17:14;;;;;;;6.03;3.88;;;35.90;64.50;;;;;;5009907;28;20125;-72
2023/06/11 08:19:40;;;;;;;7.55;3.78;;;35.30;65.70;;;;;;5026784;28;20041;-72
2023/06/11 08:22:06;;;;;;;5.95;3.47;;;34.60;66.20;;;;;;5026816;28;20489;-73
2023/06/11 08:24:31;;;;;;;5.82;3.72;;;34.20;67.40;;;;;;5008542;28;20682;-71
2023/06/11 08:26:57;;;;;;;4.63;3.17;;;33.50;67.80;;;;;;5026560;28;20036;-72
2023/06/11 08:29:22;;;;;;;3.97;2.70;;;32.80;69.30;;;;;;5008276;28;20034;-72
2023/06/11 08:31:48;;;;;;;5.55;3.10;;;32.60;69.20;;;;;;5009025;28;20500;-71
2023/06/11 08:34:13;;;;;;;4.85;2.92;;;32.40;70.60;;;;;;5027497;28;20037;-72
2023/06/11 08:36:42;;;;;;;4.82;3.00;;;32.10;70.40;;;;;;5008348;28;20120;-72
2023/06/11 08:39:07;;;;;;;6.07;3.08;;;31.90;71.70;;;;;;5008788;28;20040;-72
2023/06/11 08:41:33;;;;;;;5.97;3.40;;;31.80;72.60;;;;;;5026207;28;20120;-71
2023/06/11 08:43:59;;;;;;;4.57;3.28;;;31.70;72.30;;;;;;5009565;28;20053;-71
2023/06/11 08:46:24;;;;;;;5.90;2.75;;;31.70;72.40;;;;;;5026732;28;20123;-72
2023/06/11 08:49:05;;;;;;;5.10;2.92;;;31.60;72.00;;;;;;5026827;28;20026;-72
2023/06/11 08:51:39;;;;;;;4.70;2.92;;;31.50;72.50;;;;;;5008240;28;20124;-71
2023/06/11 08:54:09;;;;;;;7.43;3.50;;;31.50;73.10;;;;;;5009328;28;20545;-72
2023/06/11 08:56:35;;;;;;;4.68;2.58;;;31.30;73.10;;;;;;5032701;28;21022;-73
2023/06/11 08:59:01;;;;;;;7.40;3.10;;;31.30;73.30;;;;;;5035415;28;20034;-71
2023/06/11 09:01:28;;;;;;;5.57;3.03;;;31.20;73.10;;;;;;5026216;28;20127;-71
2023/06/11 09:03:53;;;;;;;4.93;2.22;;;31.10;73.20;;;;;;5034671;28;20025;-73
2023/06/11 09:06:20;;;;;;;5.72;3.15;;;31.10;74.80;;;;;;5022216;28;20669;-71
2023/06/11 09:08:59;;;;;;;6.60;2.72;;;31.20;73.30;;;;;;5032841;28;20386;-73
2023/06/11 09:11:35;;;;;;;;;;;31.00;73.50;;;;;;5034277;28;20112;-72
2023/06/11 09:14:02;;;;;;;3.97;2.55;;;30.90;73.80;;;;;;5022369;28;19953;-73
2023/06/11 09:16:28;;;;;;;8.00;2.88;;;30.80;74.60;;;;;;5033844;28;20033;-71
2023/06/11 09:18:56;;;;;;;4.15;2.67;;;30.90;76.00;;;;;;5034314;28;20036;-73
2023/06/11 09:21:25;;;;;;;9.18;2.80;;;31.10;74.30;;;;;;5031374;28;20510;-72
2023/06/11 09:23:51;;;;;;;7.33;2.50;;;31.10;73.80;;;;;;5013108;28;20035;-74
2023/06/11 09:26:18;;;;;;;4.47;2.72;;;31.20;73.20;;;;;;5012278;28;20095;-72
2023/06/11 09:28:46;;;;;;;5.18;2.55;;;31.30;73.90;;;;;;5030167;28;20421;-72
2023/06/11 09:31:11;;;;;;;5.32;2.50;;;31.40;73.40;;;;;;5030276;28;20042;-72
2023/06/11 09:33:37;;;;;;;3.67;2.13;;;31.40;73.50;;;;;;5010542;28;20029;-73
2023/06/11 09:36:03;;;;;;;3.38;2.53;;;31.40;73.50;;;;;;5012089;28;20038;-72
2023/06/11 09:38:33;;;;;;;6.82;2.63;;;31.20;74.70;;;;;;5010714;28;20057;-73
2023/06/11 09:40:59;;;;;;;;;;;31.20;73.10;;;;;;5018984;28;20030;-72
2023/06/11 09:43:25;;;;;;;6.20;2.75;;;31.10;73.60;;;;;;5011157;28;19966;-72
2023/06/11 09:45:55;;;;;;;5.45;2.65;;;31.20;73.20;;;;;;5029733;28;20045;-73
2023/06/11 09:48:24;;;;;;;4.82;2.10;;;31.20;73.50;;;;;;5028289;28;20030;-72
2023/06/11 09:50:51;;;;;;;3.55;2.35;;;31.20;72.90;;;;;;5029583;28;20087;-72
2023/06/11 09:53:21;;;;;;;3.95;2.22;;;31.20;73.30;;;;;;5028687;28;20038;-71
2023/06/11 09:55:51;;;;;;;5.85;2.80;;;31.30;73.40;;;;;;5029904;28;20069;-71
2023/06/11 09:58:26;;;;;;;6.50;2.65;;;31.40;73.10;;;;;;5010322;28;20045;-71
2023/06/11 10:00:58;;;;;;;3.80;2.15;;;31.50;72.10;;;;;;5029713;28;20037;-73
2023/06/11 10:03:24;;;;;;;4.63;1.92;;;31.60;72.90;;;;;;5029166;28;20138;-71
2023/06/11 10:05:51;;;;;;;5.20;2.33;;;31.50;72.70;;;;;;5016302;28;20452;-73
2023/06/11 10:08:24;;;;;;;3.65;2.03;;;31.50;72.70;;;;;;5010359;28;20041;-74
2023/06/11 10:10:58;;;;;;;2.80;1.90;;;31.80;72.90;;;;;;5029251;28;20065;-73
2023/06/11 10:13:31;;;;;;;2.47;2.13;;;31.80;71.10;;;;;;5028335;28;20128;-74
2023/06/11 10:16:07;;;;;;;5.28;2.30;;;31.90;71.30;;;;;;5025537;28;20068;-72
2023/06/11 10:18:32;;;;;;;7.75;2.50;;;31.80;71.10;;;;;;5012735;28;20046;-74
2023/06/11 10:21:00;;;;;;;8.18;2.75;;;31.60;72.20;;;;;;5011542;28;20026;-72
2023/06/11 10:23:36;;;;;;;4.93;2.05;;;31.50;72.90;;;;;;5028371;28;20036;-73
2023/06/11 10:26:02;;;;;;;4.95;1.88;;;31.60;71.90;;;;;;5026420;28;20469;-73
2023/06/11 10:28:48;;;;;;;3.70;2.10;;;31.70;71.10;;;;;;5028182;28;20036;-72
2023/06/11 10:31:27;;;;;;;4.38;1.90;;;31.70;70.90;;;;;;5010192;28;20037;-73
2023/06/11 10:34:01;;;;;;;3.00;1.90;;;31.70;72.20;;;;;;5006810;28;20116;-72
2023/06/11 10:36:36;;;;;;;2.83;2.10;;;31.80;69.50;;;;;;5024924;28;20041;-72
2023/06/11 10:39:23;;;;;;;2.10;1.58;;;31.60;70.50;;;;;;5025710;28;20068;-72
2023/06/11 10:42:00;;;;;;;3.08;2.50;;;31.40;69.00;;;;;;5028822;28;20104;-71
2023/06/11 10:44:25;;;;;;;3.17;1.85;;;31.30;70.10;;;;;;5024233;28;20038;-73
2023/06/11 10:46:52;;;;;;;3.35;1.95;;;31.40;70.30;;;;;;5029140;28;20069;-72
2023/06/11 10:49:31;;;;;;;3.13;1.95;;;31.40;69.70;;;;;;5027449;28;20116;-72
2023/06/11 10:51:59;;;;;;;3.13;1.98;;;31.50;70.70;;;;;;5029036;28;20033;-74
2023/06/11 10:54:48;;;;;;;4.85;2.15;;;31.50;69.80;;;;;;5009956;28;20497;-73
2023/06/11 10:57:13;;;;;;;3.72;1.95;;;31.60;70.10;;;;;;5031919;28;20041;-73
2023/06/11 10:59:40;;;;;;;2.35;1.85;;;31.50;70.40;;;;;;5026900;28;20091;-72
2023/06/11 11:02:12;;;;;;;2.80;2.20;;;31.70;71.00;;;;;;5010979;28;20036;-73
2023/06/11 11:04:52;;;;;;;5.05;2.70;;;31.60;69.70;;;;;;5025527;28;20029;-72
2023/06/11 11:07:18;;;;;;;3.83;1.90;;;31.70;70.50;;;;;;5007830;28;20037;-73
2023/06/11 11:09:44;;;;;;;2.70;1.63;;;31.90;70.10;;;;;;5024437;28;20033;-73
2023/06/11 11:12:11;;;;;;;7.78;2.08;;;31.90;69.30;;;;;;5025611;28;20045;-72
2023/06/11 11:14:37;;;;;;;6.65;2.20;;;31.90;69.70;;;;;;5027019;28;20115;-73
2023/06/11 11:17:03;;;;;;;8.65;2.50;;;32.10;69.20;;;;;;5024922;28;20448;-73
2023/06/11 11:19:30;;;;;;;5.50;2.45;;;32.10;69.40;;;;;;5021771;28;20041;-74
2023/06/11 11:21:55;;;;;;;5.20;2.58;;;31.90;69.40;;;;;;5028599;28;20025;-74
2023/06/11 11:24:21;;;;;;;5.32;2.00;;;31.80;68.90;;;;;;5026826;28;20099;-72
2023/06/11 11:26:47;;;;;;;4.93;2.22;;;31.50;69.00;;;;;;5028334;28;20033;-72
2023/06/11 11:29:13;;;;;;;3.38;1.88;;;31.50;69.80;;;;;;5026229;28;20025;-73
2023/06/11 11:31:41;;;;;;;10.88;2.45;;;31.50;69.40;;;;;;5026775;28;20198;-72
2023/06/11 11:34:07;;;;;;;3.75;2.13;;;31.50;69.50;;;;;;5010130;28;20030;-72
2023/06/11 11:36:32;;;;;;;5.03;2.10;;;31.30;69.60;;;;;;5008652;28;20036;-72
2023/06/11 11:39:10;;;;;;;5.43;2.30;;;31.10;70.60;;;;;;5027526;28;20041;-73
2023/06/11 11:41:47;;;;;;;3.25;2.30;;;31.10;70.80;;;;;;5008932;28;20416;-73
2023/06/11 11:44:14;;;;;;;3.60;2.35;;;31.00;69.90;;;;;;5027616;28;20030;-72
2023/06/11 11:46:40;;;;;;;3.10;1.98;;;31.00;69.70;;;;;;5025984;28;20033;-73
2023/06/11 11:49:08;;;;;;;4.97;2.33;;;31.10;70.00;;;;;;5007370;28;20662;-72
2023/06/11 11:51:41;;;;;;;4.80;2.30;;;31.00;69.70;;;;;;5024258;28;20041;-71
2023/06/11 11:54:07;;;;;;;3.22;1.70;;;31.10;70.10;;;;;;5025211;28;20033;-73
2023/06/11 11:56:33;;;;;;;3.75;1.95;;;31.20;70.70;;;;;;5023919;28;20038;-73
2023/06/11 11:58:59;;;;;;;3.13;1.90;;;31.30;70.30;;;;;;5006983;28;20037;-73
2023/06/11 12:01:32;;;;;;;5.85;2.33;;;31.50;71.20;;;;;;5023753;28;20049;-73
2023/06/11 12:04:00;;;;;;;4.03;2.00;;;31.60;69.40;;;;;;5026729;28;20421;-74
2023/06/11 12:06:25;;;;;;;5.00;2.05;;;31.70;69.70;;;;;;5007101;28;20509;-73
2023/06/11 12:08:51;;;;;;;5.25;2.25;;;31.80;69.00;;;;;;5026592;28;20109;-73
2023/06/11 12:11:17;;;;;;;4.45;2.25;;;31.90;68.60;;;;;;5007565;28;20038;-73
2023/06/11 12:13:42;;;;;;;2.92;2.10;;;31.80;68.00;;;;;;5008666;28;20037;-72
2023/06/11 12:16:08;;;;;;;2.95;2.10;;;31.80;68.00;;;;;;5027094;28;20087;-73
2023/06/11 12:18:34;;;;;;;3.25;1.77;;;31.80;68.50;;;;;;5025499;28;20053;-75
2023/06/11 12:20:59;;;;;;;7.47;2.50;;;31.70;68.40;;;;;;5026560;28;20635;-71
2023/06/11 12:23:25;;;;;;;3.95;2.10;;;31.70;69.20;;;;;;5007649;28;20045;-72
2023/06/11 12:25:50;;;;;;;2.72;2.10;;;31.70;68.10;;;;;;5008845;28;20393;-72
2023/06/11 12:28:18;;;;;;;3.42;1.50;;;31.70;67.90;;;;;;5021907;28;20029;-73
2023/06/11 12:30:43;;;;;;;2.95;1.83;;;31.60;67.80;;;;;;5025336;28;20030;-73
2023/06/11 12:33:10;;;;;;;2.83;1.88;;;31.60;69.30;;;;;;5025779;28;20104;-74
2023/06/11 12:35:36;;;;;;;4.63;2.33;;;31.50;67.90;;;;;;5024999;28;20444;-72
2023/06/11 12:38:01;;;;;;;2.40;2.05;;;31.20;68.40;;;;;;5027418;28;20037;-71
2023/06/11 12:40:30;;;;;;;5.45;2.40;;;31.10;68.70;;;;;;5010983;28;20072;-71
2023/06/11 12:42:59;;;;;;;3.72;2.40;;;31.10;68.20;;;;;;5012297;28;20076;-72
2023/06/11 12:45:29;;;;;;;3.13;1.58;;;30.90;68.70;;;;;;5028543;28;20056;-73
2023/06/11 12:47:55;;;;;;;2.10;1.63;;;30.90;68.40;;;;;;5030054;28;20041;-71